sensor_id;sensor_type;location;lat;lon;timestamp;pressure;altitude;pressure_sealevel;temperature;humidity
15604;BME280;7902;49.042;9.092;2023-12-04T00:01:15;99285.03;;;1.65;60.33
15604;BME280;7902;49.042;9.092;2023-12-04T00:03:41;99276.69;;;1.57;60.34
15604;BME280;7902;49.042;9.092;2023-12-04T00:06:07;99283.38;;;1.64;60.36
15604;BME280;7902;49.042;9.092;2023-12-04T00:08:33;99278.88;;;1.43;60.59
15604;BME280;7902;49.042;9.092;2023-12-04T00:10:59;99280.03;;;1.34;60.76
15604;BME280;7902;49.042;9.092;2023-12-04T00:13:25;99263.78;;;1.30;60.91
15604;BME280;7902;49.042;9.092;2023-12-04T00:15:51;99265.38;;;1.35;60.95
15604;BME280;7902;49.042;9.092;2023-12-04T00:18:16;99266.25;;;1.33;60.43
15604;BME280;7902;49.042;9.092;2023-12-04T00:20:42;99258.78;;;1.24;60.39
15604;BME280;7902;49.042;9.092;2023-12-04T00:23:08;99254.44;;;1.26;61.24
15604;BME280;7902;49.042;9.092;2023-12-04T00:25:34;99243.97;;;1.29;61.21
15604;BME280;7902;49.042;9.092;2023-12-04T00:28:00;99252.63;;;1.28;60.68
15604;BME280;7902;49.042;9.092;2023-12-04T00:30:26;99237.94;;;1.29;60.89
15604;BME280;7902;49.042;9.092;2023-12-04T00:32:52;99239.47;;;1.36;60.71
15604;BME280;7902;49.042;9.092;2023-12-04T00:35:18;99234.31;;;1.35;60.93
15604;BME280;7902;49.042;9.092;2023-12-04T00:37:44;99231.38;;;1.45;60.68
15604;BME280;7902;49.042;9.092;2023-12-04T00:40:10;99223.47;;;1.50;59.86
15604;BME280;7902;49.042;9.092;2023-12-04T00:42:36;99227.84;;;1.48;60.04
15604;BME280;7902;49.042;9.092;2023-12-04T00:45:02;99217.81;;;1.39;60.39
15604;BME280;7902;49.042;9.092;2023-12-04T00:47:28;99211.47;;;1.47;60.26
15604;BME280;7902;49.042;9.092;2023-12-04T00:49:54;99215.63;;;1.51;60.01
15604;BME280;7902;49.042;9.092;2023-12-04T00:52:20;99221.28;;;1.38;60.45
15604;BME280;7902;49.042;9.092;2023-12-04T00:54:46;99220.28;;;1.42;60.78
15604;BME280;7902;49.042;9.092;2023-12-04T00:57:12;99219.69;;;1.33;59.84
15604;BME280;7902;49.042;9.092;2023-12-04T00:59:38;99214.41;;;1.37;59.98
15604;BME280;7902;49.042;9.092;2023-12-04T01:02:05;99209.19;;;1.38;60.71
15604;BME280;7902;49.042;9.092;2023-12-04T01:04:31;99206.44;;;1.43;60.47
15604;BME280;7902;49.042;9.092;2023-12-04T01:06:57;99198.75;;;1.41;60.61
15604;BME280;7902;49.042;9.092;2023-12-04T01:09:23;99201.19;;;1.46;60.43
15604;BME280;7902;49.042;9.092;2023-12-04T01:11:52;99199.69;;;1.39;59.85
15604;BME280;7902;49.042;9.092;2023-12-04T01:14:17;99205.84;;;1.36;60.44
15604;BME280;7902;49.042;9.092;2023-12-04T01:16:43;99206.06;;;1.28;60.88
15604;BME280;7902;49.042;9.092;2023-12-04T01:19:09;99205.53;;;1.19;61.08
15604;BME280;7902;49.042;9.092;2023-12-04T01:21:35;99207.25;;;1.18;61.31
15604;BME280;7902;49.042;9.092;2023-12-04T01:24:01;99207.19;;;1.21;60.94
15604;BME280;7902;49.042;9.092;2023-12-04T01:26:27;99206.34;;;1.21;61.09
15604;BME280;7902;49.042;9.092;2023-12-04T01:28:53;99198.56;;;1.21;60.57
15604;BME280;7902;49.042;9.092;2023-12-04T01:31:19;99192.50;;;1.22;60.75
15604;BME280;7902;49.042;9.092;2023-12-04T01:33:45;99187.41;;;1.19;60.36
15604;BME280;7902;49.042;9.092;2023-12-04T01:36:11;99186.69;;;1.15;60.83
15604;BME280;7902;49.042;9.092;2023-12-04T01:38:37;99174.66;;;1.14;60.38
15604;BME280;7902;49.042;9.092;2023-12-04T01:41:03;99181.56;;;1.14;61.13
15604;BME280;7902;49.042;9.092;2023-12-04T01:43:30;99172.66;;;1.22;60.89
15604;BME280;7902;49.042;9.092;2023-12-04T01:45:56;99179.66;;;1.19;60.64
15604;BME280;7902;49.042;9.092;2023-12-04T01:48:23;99166.66;;;1.22;60.45
15604;BME280;7902;49.042;9.092;2023-12-04T01:50:51;99178.03;;;1.16;60.78
15604;BME280;7902;49.042;9.092;2023-12-04T01:53:17;99177.22;;;1.14;60.95
15604;BME280;7902;49.042;9.092;2023-12-04T01:55:43;99177.16;;;1.17;60.20
15604;BME280;7902;49.042;9.092;2023-12-04T01:58:09;99169.28;;;1.20;61.08
15604;BME280;7902;49.042;9.092;2023-12-04T02:00:35;99163.94;;;1.25;60.70
15604;BME280;7902;49.042;9.092;2023-12-04T02:03:02;99163.34;;;1.42;60.22
15604;BME280;7902;49.042;9.092;2023-12-04T02:05:28;99166.38;;;1.29;59.92
15604;BME280;7902;49.042;9.092;2023-12-04T02:07:55;99155.53;;;1.18;60.99
15604;BME280;7902;49.042;9.092;2023-12-04T02:10:23;99154.75;;;1.16;60.76
15604;BME280;7902;49.042;9.092;2023-12-04T02:12:50;99157.44;;;1.13;60.79
15604;BME280;7902;49.042;9.092;2023-12-04T02:15:16;99158.25;;;1.15;61.46
15604;BME280;7902;49.042;9.092;2023-12-04T02:17:43;99153.88;;;1.17;60.70
15604;BME280;7902;49.042;9.092;2023-12-04T02:20:12;99143.25;;;1.25;60.73
15604;BME280;7902;49.042;9.092;2023-12-04T02:22:38;99137.34;;;1.21;60.21
15604;BME280;7902;49.042;9.092;2023-12-04T02:25:05;99137.28;;;1.23;60.11
15604;BME280;7902;49.042;9.092;2023-12-04T02:27:40;99133.88;;;1.22;60.66
15604;BME280;7902;49.042;9.092;2023-12-04T02:30:11;99139.81;;;1.24;60.55
15604;BME280;7902;49.042;9.092;2023-12-04T02:32:45;99128.38;;;1.07;61.01
15604;BME280;7902;49.042;9.092;2023-12-04T02:35:12;99129.94;;;1.11;60.94
15604;BME280;7902;49.042;9.092;2023-12-04T02:37:40;99132.00;;;1.01;60.86
15604;BME280;7902;49.042;9.092;2023-12-04T02:40:07;99136.13;;;1.07;61.11
15604;BME280;7902;49.042;9.092;2023-12-04T02:42:33;99128.41;;;1.05;60.03
15604;BME280;7902;49.042;9.092;2023-12-04T02:44:59;99123.25;;;1.05;60.31
15604;BME280;7902;49.042;9.092;2023-12-04T02:47:25;99125.97;;;1.01;61.34
15604;BME280;7902;49.042;9.092;2023-12-04T02:49:51;99115.75;;;0.98;60.46
15604;BME280;7902;49.042;9.092;2023-12-04T02:52:17;99120.97;;;0.96;61.02
15604;BME280;7902;49.042;9.092;2023-12-04T02:54:43;99109.84;;;0.94;60.63
15604;BME280;7902;49.042;9.092;2023-12-04T02:57:09;99108.78;;;1.00;60.76
15604;BME280;7902;49.042;9.092;2023-12-04T02:59:34;99108.53;;;1.07;60.21
15604;BME280;7902;49.042;9.092;2023-12-04T03:02:00;99095.59;;;1.07;60.36
15604;BME280;7902;49.042;9.092;2023-12-04T03:04:28;99093.91;;;1.06;60.12
15604;BME280;7902;49.042;9.092;2023-12-04T03:06:55;99083.88;;;0.97;60.85
15604;BME280;7902;49.042;9.092;2023-12-04T03:09:21;99079.56;;;0.98;61.41
15604;BME280;7902;49.042;9.092;2023-12-04T03:11:48;99072.69;;;0.97;60.24
15604;BME280;7902;49.042;9.092;2023-12-04T03:14:14;99064.97;;;0.95;60.01
15604;BME280;7902;49.042;9.092;2023-12-04T03:16:40;99059.88;;;0.94;60.98
15604;BME280;7902;49.042;9.092;2023-12-04T03:19:05;99059.94;;;0.92;60.86
15604;BME280;7902;49.042;9.092;2023-12-04T03:21:32;99055.75;;;0.88;61.18
15604;BME280;7902;49.042;9.092;2023-12-04T03:23:57;99048.09;;;0.85;61.21
15604;BME280;7902;49.042;9.092;2023-12-04T03:26:23;99052.97;;;0.94;60.74
15604;BME280;7902;49.042;9.092;2023-12-04T03:28:49;99056.34;;;0.96;60.65
15604;BME280;7902;49.042;9.092;2023-12-04T03:31:15;99050.97;;;1.02;60.34
15604;BME280;7902;49.042;9.092;2023-12-04T03:33:41;99052.75;;;1.00;60.85
15604;BME280;7902;49.042;9.092;2023-12-04T03:36:07;99041.50;;;1.01;60.86
15604;BME280;7902;49.042;9.092;2023-12-04T03:38:33;99028.63;;;1.00;60.32
15604;BME280;7902;49.042;9.092;2023-12-04T03:40:59;99031.16;;;1.01;60.94
15604;BME280;7902;49.042;9.092;2023-12-04T03:43:25;99032.91;;;1.01;60.87
15604;BME280;7902;49.042;9.092;2023-12-04T03:45:51;99020.78;;;1.03;60.37
15604;BME280;7902;49.042;9.092;2023-12-04T03:48:17;99013.06;;;1.01;60.92
15604;BME280;7902;49.042;9.092;2023-12-04T03:50:43;99000.28;;;0.98;60.82
15604;BME280;7902;49.042;9.092;2023-12-04T03:53:10;98996.09;;;0.94;60.19
15604;BME280;7902;49.042;9.092;2023-12-04T03:55:36;98998.09;;;0.86;60.73
15604;BME280;7902;49.042;9.092;2023-12-04T03:58:03;99002.00;;;0.98;60.23
15604;BME280;7902;49.042;9.092;2023-12-04T04:00:29;99005.66;;;0.92;61.18
15604;BME280;7902;49.042;9.092;2023-12-04T04:02:55;99000.47;;;0.92;61.19
15604;BME280;7902;49.042;9.092;2023-12-04T04:05:21;98995.88;;;1.00;61.32
15604;BME280;7902;49.042;9.092;2023-12-04T04:07:47;98992.72;;;0.92;60.97
15604;BME280;7902;49.042;9.092;2023-12-04T04:10:13;98991.91;;;0.90;61.09
15604;BME280;7902;49.042;9.092;2023-12-04T04:12:39;98998.09;;;0.86;60.95
15604;BME280;7902;49.042;9.092;2023-12-04T04:15:05;98986.91;;;0.85;61.01
15604;BME280;7902;49.042;9.092;2023-12-04T04:17:32;98997.03;;;0.92;60.50
15604;BME280;7902;49.042;9.092;2023-12-04T04:19:59;98996.31;;;0.88;60.50
15604;BME280;7902;49.042;9.092;2023-12-04T04:22:25;99001.47;;;0.88;60.59
15604;BME280;7902;49.042;9.092;2023-12-04T04:24:51;98997.88;;;0.92;61.04
15604;BME280;7902;49.042;9.092;2023-12-04T04:27:17;98990.84;;;0.96;61.02
15604;BME280;7902;49.042;9.092;2023-12-04T04:29:43;98987.22;;;1.01;60.11
15604;BME280;7902;49.042;9.092;2023-12-04T04:32:09;98987.44;;;0.95;60.94
15604;BME280;7902;49.042;9.092;2023-12-04T04:34:34;98987.00;;;1.07;60.02
15604;BME280;7902;49.042;9.092;2023-12-04T04:37:00;98984.69;;;1.00;61.16
15604;BME280;7902;49.042;9.092;2023-12-04T04:39:26;98995.50;;;1.11;60.21
15604;BME280;7902;49.042;9.092;2023-12-04T04:41:52;98988.38;;;1.17;60.72
15604;BME280;7902;49.042;9.092;2023-12-04T04:44:18;98989.19;;;1.18;60.75
15604;BME280;7902;49.042;9.092;2023-12-04T04:46:44;98990.84;;;1.20;60.57
15604;BME280;7902;49.042;9.092;2023-12-04T04:49:10;98992.41;;;1.24;60.22
15604;BME280;7902;49.042;9.092;2023-12-04T04:51:36;98992.44;;;1.23;59.75
15604;BME280;7902;49.042;9.092;2023-12-04T04:54:02;98990.88;;;1.19;59.82
15604;BME280;7902;49.042;9.092;2023-12-04T04:56:29;98991.63;;;1.22;60.05
15604;BME280;7902;49.042;9.092;2023-12-04T04:58:55;98996.03;;;1.42;60.51
15604;BME280;7902;49.042;9.092;2023-12-04T05:01:21;98992.88;;;1.36;60.04
15604;BME280;7902;49.042;9.092;2023-12-04T05:03:47;98982.19;;;1.21;60.15
15604;BME280;7902;49.042;9.092;2023-12-04T05:06:13;98977.69;;;1.26;59.80
15604;BME280;7902;49.042;9.092;2023-12-04T05:08:39;98974.00;;;1.32;60.41
15604;BME280;7902;49.042;9.092;2023-12-04T05:11:05;98970.78;;;1.27;60.61
15604;BME280;7902;49.042;9.092;2023-12-04T05:13:31;98966.59;;;1.23;59.72
15604;BME280;7902;49.042;9.092;2023-12-04T05:15:57;98964.16;;;1.42;60.46
15604;BME280;7902;49.042;9.092;2023-12-04T05:18:23;98954.09;;;1.34;59.37
15604;BME280;7902;49.042;9.092;2023-12-04T05:20:49;98958.66;;;1.27;60.33
15604;BME280;7902;49.042;9.092;2023-12-04T05:23:15;98947.88;;;1.40;60.06
15604;BME280;7902;49.042;9.092;2023-12-04T05:25:41;98944.28;;;1.20;60.43
15604;BME280;7902;49.042;9.092;2023-12-04T05:28:07;98942.00;;;1.13;60.59
15604;BME280;7902;49.042;9.092;2023-12-04T05:30:33;98942.03;;;1.11;60.43
15604;BME280;7902;49.042;9.092;2023-12-04T05:32:58;98935.56;;;1.23;60.96
15604;BME280;7902;49.042;9.092;2023-12-04T05:35:24;98934.63;;;1.25;60.70
15604;BME280;7902;49.042;9.092;2023-12-04T05:37:50;98942.81;;;1.13;60.82
15604;BME280;7902;49.042;9.092;2023-12-04T05:40:16;98942.63;;;1.18;59.77
15604;BME280;7902;49.042;9.092;2023-12-04T05:42:42;98933.97;;;1.19;60.48
15604;BME280;7902;49.042;9.092;2023-12-04T05:45:09;98935.06;;;1.13;60.04
15604;BME280;7902;49.042;9.092;2023-12-04T05:47:35;98927.47;;;1.09;60.32
15604;BME280;7902;49.042;9.092;2023-12-04T05:50:01;98936.03;;;1.11;60.91
15604;BME280;7902;49.042;9.092;2023-12-04T05:52:27;98936.88;;;1.11;60.96
15604;BME280;7902;49.042;9.092;2023-12-04T05:54:53;98930.00;;;1.10;60.16
15604;BME280;7902;49.042;9.092;2023-12-04T05:57:18;98943.31;;;1.23;59.90
15604;BME280;7902;49.042;9.092;2023-12-04T05:59:44;98941.16;;;1.12;60.21
15604;BME280;7902;49.042;9.092;2023-12-04T06:02:11;98940.34;;;1.10;60.80
15604;BME280;7902;49.042;9.092;2023-12-04T06:04:37;98939.41;;;1.13;61.32
15604;BME280;7902;49.042;9.092;2023-12-04T06:07:03;98939.66;;;1.05;61.63
15604;BME280;7902;49.042;9.092;2023-12-04T06:09:28;98936.91;;;1.10;60.90
15604;BME280;7902;49.042;9.092;2023-12-04T06:11:54;98938.78;;;1.06;60.14
15604;BME280;7902;49.042;9.092;2023-12-04T06:14:20;98936.06;;;1.09;61.04
15604;BME280;7902;49.042;9.092;2023-12-04T06:16:46;98942.25;;;1.05;60.50
15604;BME280;7902;49.042;9.092;2023-12-04T06:19:12;98933.72;;;1.03;61.14
15604;BME280;7902;49.042;9.092;2023-12-04T06:21:38;98941.19;;;1.11;60.64
15604;BME280;7902;49.042;9.092;2023-12-04T06:24:05;98939.56;;;1.08;60.82
15604;BME280;7902;49.042;9.092;2023-12-04T06:26:31;98934.25;;;1.13;60.41
15604;BME280;7902;49.042;9.092;2023-12-04T06:28:58;98938.66;;;1.09;60.80
15604;BME280;7902;49.042;9.092;2023-12-04T06:31:24;98947.88;;;1.16;60.71
15604;BME280;7902;49.042;9.092;2023-12-04T06:33:50;98944.56;;;1.13;60.88
15604;BME280;7902;49.042;9.092;2023-12-04T06:36:17;98934.97;;;1.16;59.75
15604;BME280;7902;49.042;9.092;2023-12-04T06:38:46;98930.50;;;1.20;60.19
15604;BME280;7902;49.042;9.092;2023-12-04T06:41:13;98927.06;;;1.19;60.63
15604;BME280;7902;49.042;9.092;2023-12-04T06:43:39;98922.91;;;1.15;59.92
15604;BME280;7902;49.042;9.092;2023-12-04T06:46:05;98928.97;;;1.14;60.14
15604;BME280;7902;49.042;9.092;2023-12-04T06:48:32;98928.03;;;1.17;60.66
15604;BME280;7902;49.042;9.092;2023-12-04T06:50:58;98919.28;;;1.21;60.60
15604;BME280;7902;49.042;9.092;2023-12-04T06:53:24;98914.94;;;1.21;59.96
15604;BME280;7902;49.042;9.092;2023-12-04T06:55:50;98911.13;;;1.31;60.04
15604;BME280;7902;49.042;9.092;2023-12-04T06:58:16;98901.66;;;1.30;60.17
15604;BME280;7902;49.042;9.092;2023-12-04T07:00:42;98902.69;;;1.26;60.06
15604;BME280;7902;49.042;9.092;2023-12-04T07:03:08;98892.38;;;1.25;60.99
15604;BME280;7902;49.042;9.092;2023-12-04T07:05:34;98892.25;;;1.28;60.59
15604;BME280;7902;49.042;9.092;2023-12-04T07:07:59;98888.75;;;1.07;60.47
15604;BME280;7902;49.042;9.092;2023-12-04T07:10:25;98900.66;;;1.11;60.70
15604;BME280;7902;49.042;9.092;2023-12-04T07:12:51;98902.09;;;1.18;60.04
15604;BME280;7902;49.042;9.092;2023-12-04T07:15:17;98888.28;;;1.19;59.87
15604;BME280;7902;49.042;9.092;2023-12-04T07:17:43;98887.03;;;1.29;60.80
15604;BME280;7902;49.042;9.092;2023-12-04T07:20:09;98884.50;;;1.28;60.06
15604;BME280;7902;49.042;9.092;2023-12-04T07:22:37;98866.88;;;1.38;60.25
15604;BME280;7902;49.042;9.092;2023-12-04T07:25:03;98867.78;;;1.37;60.40
15604;BME280;7902;49.042;9.092;2023-12-04T07:27:29;98877.22;;;1.38;60.10
15604;BME280;7902;49.042;9.092;2023-12-04T07:29:55;98866.41;;;1.50;60.29
15604;BME280;7902;49.042;9.092;2023-12-04T07:32:21;98865.34;;;1.55;59.51
15604;BME280;7902;49.042;9.092;2023-12-04T07:34:47;98849.13;;;1.72;59.76
15604;BME280;7902;49.042;9.092;2023-12-04T07:37:13;98848.94;;;1.76;59.49
15604;BME280;7902;49.042;9.092;2023-12-04T07:39:38;98858.56;;;1.73;58.91
15604;BME280;7902;49.042;9.092;2023-12-04T07:42:04;98850.84;;;1.71;59.79
15604;BME280;7902;49.042;9.092;2023-12-04T07:44:30;98843.50;;;1.83;59.35
15604;BME280;7902;49.042;9.092;2023-12-04T07:46:56;98838.13;;;1.87;59.14
15604;BME280;7902;49.042;9.092;2023-12-04T07:49:23;98840.44;;;1.93;58.65
15604;BME280;7902;49.042;9.092;2023-12-04T07:51:48;98842.28;;;1.91;59.17
15604;BME280;7902;49.042;9.092;2023-12-04T07:54:14;98841.22;;;1.75;59.30
15604;BME280;7902;49.042;9.092;2023-12-04T07:56:40;98836.31;;;1.89;59.61
15604;BME280;7902;49.042;9.092;2023-12-04T07:59:07;98830.47;;;1.84;59.33
15604;BME280;7902;49.042;9.092;2023-12-04T08:01:35;98829.97;;;1.96;59.31
15604;BME280;7902;49.042;9.092;2023-12-04T08:04:01;98833.63;;;1.92;59.10
15604;BME280;7902;49.042;9.092;2023-12-04T08:06:26;98825.84;;;1.92;58.54
15604;BME280;7902;49.042;9.092;2023-12-04T08:08:52;98817.28;;;1.90;58.87
15604;BME280;7902;49.042;9.092;2023-12-04T08:11:18;98823.72;;;2.02;58.54
15604;BME280;7902;49.042;9.092;2023-12-04T08:13:44;98833.34;;;1.98;59.78
15604;BME280;7902;49.042;9.092;2023-12-04T08:16:14;98811.88;;;2.16;58.69
15604;BME280;7902;49.042;9.092;2023-12-04T08:18:42;98812.56;;;2.20;58.43
15604;BME280;7902;49.042;9.092;2023-12-04T08:21:09;98831.41;;;2.03;58.99
15604;BME280;7902;49.042;9.092;2023-12-04T08:23:35;98828.09;;;2.20;58.50
15604;BME280;7902;49.042;9.092;2023-12-04T08:26:01;98845.63;;;2.13;58.67
15604;BME280;7902;49.042;9.092;2023-12-04T08:28:27;98836.72;;;2.00;58.86
15604;BME280;7902;49.042;9.092;2023-12-04T08:30:53;98826.75;;;2.11;58.63
15604;BME280;7902;49.042;9.092;2023-12-04T08:33:19;98821.81;;;2.26;59.00
15604;BME280;7902;49.042;9.092;2023-12-04T08:35:46;98810.13;;;2.36;58.31
15604;BME280;7902;49.042;9.092;2023-12-04T08:38:13;98803.78;;;2.43;58.33
15604;BME280;7902;49.042;9.092;2023-12-04T08:40:38;98796.78;;;2.45;58.32
15604;BME280;7902;49.042;9.092;2023-12-04T08:43:05;98789.06;;;2.43;58.27
15604;BME280;7902;49.042;9.092;2023-12-04T08:45:31;98789.06;;;2.43;58.42
15604;BME280;7902;49.042;9.092;2023-12-04T08:47:57;98796.78;;;2.45;58.79
15604;BME280;7902;49.042;9.092;2023-12-04T08:50:23;98796.50;;;2.51;57.65
15604;BME280;7902;49.042;9.092;2023-12-04T08:52:51;98787.81;;;2.52;57.88
15604;BME280;7902;49.042;9.092;2023-12-04T08:55:17;98786.00;;;2.54;57.80
15604;BME280;7902;49.042;9.092;2023-12-04T08:57:43;98798.66;;;2.60;58.06
15604;BME280;7902;49.042;9.092;2023-12-04T09:00:09;98785.59;;;2.63;57.72
15604;BME280;7902;49.042;9.092;2023-12-04T09:02:35;98784.59;;;2.65;57.69
15604;BME280;7902;49.042;9.092;2023-12-04T09:05:02;98777.66;;;2.66;57.34
15604;BME280;7902;49.042;9.092;2023-12-04T09:07:27;98782.06;;;2.64;57.91
15604;BME280;7902;49.042;9.092;2023-12-04T09:09:53;98778.09;;;2.57;57.83
15604;BME280;7902;49.042;9.092;2023-12-04T09:12:19;98784.16;;;2.56;57.54
15604;BME280;7902;49.042;9.092;2023-12-04T09:14:45;98788.09;;;2.64;57.67
15604;BME280;7902;49.042;9.092;2023-12-04T09:17:11;98793.38;;;2.63;58.16
15604;BME280;7902;49.042;9.092;2023-12-04T09:19:37;98806.03;;;2.69;58.48
15604;BME280;7902;49.042;9.092;2023-12-04T09:22:03;98808.00;;;2.64;57.81
15604;BME280;7902;49.042;9.092;2023-12-04T09:24:29;98801.78;;;2.68;57.86
15604;BME280;7902;49.042;9.092;2023-12-04T09:26:56;98805.19;;;2.69;58.21
15604;BME280;7902;49.042;9.092;2023-12-04T09:29:22;98799.03;;;2.71;57.61
15604;BME280;7902;49.042;9.092;2023-12-04T09:31:51;98788.94;;;2.65;57.86
15604;BME280;7902;49.042;9.092;2023-12-04T09:34:17;98792.00;;;2.73;57.68
15604;BME280;7902;49.042;9.092;2023-12-04T09:36:43;98793.69;;;2.74;57.74
15604;BME280;7902;49.042;9.092;2023-12-04T09:39:09;98787.75;;;2.72;57.88
15604;BME280;7902;49.042;9.092;2023-12-04T09:41:37;98781.53;;;2.76;57.88
15604;BME280;7902;49.042;9.092;2023-12-04T09:44:04;98778.88;;;2.78;57.99
15604;BME280;7902;49.042;9.092;2023-12-04T09:46:30;98776.28;;;2.78;57.99
15604;BME280;7902;49.042;9.092;2023-12-04T09:48:57;98776.41;;;2.75;57.68
15604;BME280;7902;49.042;9.092;2023-12-04T09:51:23;98759.72;;;2.80;58.03
15604;BME280;7902;49.042;9.092;2023-12-04T09:53:51;98756.84;;;2.86;58.07
15604;BME280;7902;49.042;9.092;2023-12-04T09:56:18;98763.78;;;2.86;57.62
15604;BME280;7902;49.042;9.092;2023-12-04T09:58:50;98772.25;;;2.89;57.67
15604;BME280;7902;49.042;9.092;2023-12-04T10:01:18;98770.16;;;2.79;58.45
15604;BME280;7902;49.042;9.092;2023-12-04T10:03:44;98767.97;;;2.88;57.94
15604;BME280;7902;49.042;9.092;2023-12-04T10:06:15;98769.59;;;2.91;58.57
15604;BME280;7902;49.042;9.092;2023-12-04T10:08:45;98757.09;;;2.99;57.58
15604;BME280;7902;49.042;9.092;2023-12-04T10:11:14;98752.50;;;2.87;57.96
15604;BME280;7902;49.042;9.092;2023-12-04T10:13:40;98757.88;;;3.01;57.55
15604;BME280;7902;49.042;9.092;2023-12-04T10:16:07;98737.50;;;2.93;57.76
15604;BME280;7902;49.042;9.092;2023-12-04T10:18:33;98744.09;;;3.00;57.79
15604;BME280;7902;49.042;9.092;2023-12-04T10:21:00;98723.78;;;2.91;57.76
15604;BME280;7902;49.042;9.092;2023-12-04T10:23:38;98728.28;;;3.05;57.83
15604;BME280;7902;49.042;9.092;2023-12-04T10:26:05;98722.50;;;3.00;57.81
15604;BME280;7902;49.042;9.092;2023-12-04T10:28:33;98731.84;;;3.02;57.76
15604;BME280;7902;49.042;9.092;2023-12-04T10:31:00;98747.56;;;2.99;57.72
15604;BME280;7902;49.042;9.092;2023-12-04T10:33:25;98742.41;;;2.99;58.04
15604;BME280;7902;49.042;9.092;2023-12-04T10:35:52;98733.72;;;3.00;58.04
15604;BME280;7902;49.042;9.092;2023-12-04T10:38:18;98728.28;;;3.05;57.92
15604;BME280;7902;49.042;9.092;2023-12-04T10:40:44;98742.56;;;2.96;58.09
15604;BME280;7902;49.042;9.092;2023-12-04T10:43:21;98730.78;;;3.06;57.62
15604;BME280;7902;49.042;9.092;2023-12-04T10:45:48;98734.31;;;3.05;57.93
15604;BME280;7902;49.042;9.092;2023-12-04T10:48:15;98722.66;;;3.14;57.75
15604;BME280;7902;49.042;9.092;2023-12-04T10:50:43;98730.34;;;2.98;57.99
15604;BME280;7902;49.042;9.092;2023-12-04T10:53:14;98720.28;;;3.09;57.86
15604;BME280;7902;49.042;9.092;2023-12-04T10:55:41;98716.06;;;3.07;58.12
15604;BME280;7902;49.042;9.092;2023-12-04T10:58:09;98719.22;;;3.14;58.29
15604;BME280;7902;49.042;9.092;2023-12-04T11:00:39;98717.75;;;3.08;58.06
15604;BME280;7902;49.042;9.092;2023-12-04T11:03:09;98704.91;;;3.24;57.63
15604;BME280;7902;49.042;9.092;2023-12-04T11:05:38;98702.88;;;3.12;58.17
15604;BME280;7902;49.042;9.092;2023-12-04T11:08:07;98690.06;;;3.26;57.87
15604;BME280;7902;49.042;9.092;2023-12-04T11:10:41;98686.41;;;3.30;58.12
15604;BME280;7902;49.042;9.092;2023-12-04T11:13:13;98686.41;;;3.30;57.78
15604;BME280;7902;49.042;9.092;2023-12-04T11:15:41;98662.84;;;3.17;57.70
15604;BME280;7902;49.042;9.092;2023-12-04T11:18:13;98666.13;;;3.21;58.03
15604;BME280;7902;49.042;9.092;2023-12-04T11:21:01;98663.59;;;3.36;57.84
15604;BME280;7902;49.042;9.092;2023-12-04T11:23:31;98650.41;;;3.41;57.79
15604;BME280;7902;49.042;9.092;2023-12-04T11:25:57;98639.16;;;3.40;57.89
15604;BME280;7902;49.042;9.092;2023-12-04T11:28:25;98642.16;;;3.33;57.32
15604;BME280;7902;49.042;9.092;2023-12-04T11:30:52;98638.66;;;3.34;57.87
15604;BME280;7902;49.042;9.092;2023-12-04T11:33:18;98648.56;;;3.43;57.46
15604;BME280;7902;49.042;9.092;2023-12-04T11:35:44;98649.56;;;3.40;57.56
15604;BME280;7902;49.042;9.092;2023-12-04T11:38:13;98657.09;;;3.45;57.26
15604;BME280;7902;49.042;9.092;2023-12-04T11:40:40;98659.69;;;3.45;58.02
15604;BME280;7902;49.042;9.092;2023-12-04T11:43:27;98661.09;;;3.52;58.01
15604;BME280;7902;49.042;9.092;2023-12-04T11:45:53;98667.34;;;3.48;57.77
15604;BME280;7902;49.042;9.092;2023-12-04T11:48:23;98656.72;;;3.52;57.77
15604;BME280;7902;49.042;9.092;2023-12-04T11:50:52;98647.88;;;3.57;57.92
15604;BME280;7902;49.042;9.092;2023-12-04T11:53:18;98641.59;;;3.61;58.03
15604;BME280;7902;49.042;9.092;2023-12-04T11:55:45;98638.47;;;3.54;58.10
15604;BME280;7902;49.042;9.092;2023-12-04T11:58:12;98631.16;;;3.62;57.58
15604;BME280;7902;49.042;9.092;2023-12-04T12:00:38;98625.19;;;3.60;57.84
15604;BME280;7902;49.042;9.092;2023-12-04T12:03:06;98620.28;;;3.54;58.18
15604;BME280;7902;49.042;9.092;2023-12-04T12:05:33;98604.59;;;3.57;58.20
15604;BME280;7902;49.042;9.092;2023-12-04T12:08:04;98591.47;;;3.43;58.37
15604;BME280;7902;49.042;9.092;2023-12-04T12:10:31;98597.41;;;3.62;58.43
15604;BME280;7902;49.042;9.092;2023-12-04T12:12:58;98569.50;;;3.66;58.15
15604;BME280;7902;49.042;9.092;2023-12-04T12:15:24;98573.94;;;3.64;58.09
15604;BME280;7902;49.042;9.092;2023-12-04T12:17:50;98572.94;;;3.66;58.17
15604;BME280;7902;49.042;9.092;2023-12-04T12:20:17;98566.00;;;3.67;58.06
15604;BME280;7902;49.042;9.092;2023-12-04T12:22:44;98560.88;;;3.65;58.61
15604;BME280;7902;49.042;9.092;2023-12-04T12:25:10;98551.16;;;3.69;58.14
15604;BME280;7902;49.042;9.092;2023-12-04T12:27:37;98546.63;;;3.72;58.51
15604;BME280;7902;49.042;9.092;2023-12-04T12:30:04;98537.84;;;3.75;58.62
15604;BME280;7902;49.042;9.092;2023-12-04T12:32:31;98535.69;;;3.67;58.59
15604;BME280;7902;49.042;9.092;2023-12-04T12:34:56;98527.53;;;3.73;58.20
15604;BME280;7902;49.042;9.092;2023-12-04T12:37:22;98526.97;;;3.68;59.28
15604;BME280;7902;49.042;9.092;2023-12-04T12:39:49;98520.19;;;3.66;59.23
15604;BME280;7902;49.042;9.092;2023-12-04T12:42:24;98524.94;;;3.73;58.90
15604;BME280;7902;49.042;9.092;2023-12-04T12:44:50;98510.97;;;3.76;58.00
15604;BME280;7902;49.042;9.092;2023-12-04T12:47:16;98505.09;;;3.72;59.63
15604;BME280;7902;49.042;9.092;2023-12-04T12:49:43;98494.97;;;3.83;59.29
15604;BME280;7902;49.042;9.092;2023-12-04T12:52:09;98490.28;;;3.74;59.89
15604;BME280;7902;49.042;9.092;2023-12-04T12:54:37;98486.38;;;3.67;60.07
15604;BME280;7902;49.042;9.092;2023-12-04T12:57:04;98497.56;;;3.68;60.49
15604;BME280;7902;49.042;9.092;2023-12-04T12:59:30;98487.94;;;3.85;59.64
15604;BME280;7902;49.042;9.092;2023-12-04T13:01:57;98479.38;;;3.68;59.86
15604;BME280;7902;49.042;9.092;2023-12-04T13:04:26;98474.19;;;3.83;60.22
15604;BME280;7902;49.042;9.092;2023-12-04T13:06:52;98462.75;;;3.72;60.43
15604;BME280;7902;49.042;9.092;2023-12-04T13:09:19;98466.22;;;3.86;60.26
15604;BME280;7902;49.042;9.092;2023-12-04T13:11:45;98462.06;;;3.84;60.31
15604;BME280;7902;49.042;9.092;2023-12-04T13:14:11;98451.16;;;3.77;60.88
15604;BME280;7902;49.042;9.092;2023-12-04T13:16:37;98460.69;;;3.92;60.23
15604;BME280;7902;49.042;9.092;2023-12-04T13:19:08;98455.69;;;3.89;60.59